Time;durP1;ratioP1;P1;durP2;ratioP2;P2;SDS_P1;SDS_P2;PMS_P1;PMS_P2;Temp;Humidity;BMP_temperature;BMP_pressure;BME280_temperature;BME280_humidity;BME280_pressure;Samples;Min_cycle;Max_cycle;Signal;HPM_P1;HPM_P2
2023/09/21 00:02:13;;;;;;;3.97;1.20;;;;;;;14.85;100.00;97862.91;5010977;28;20026;-74
2023/09/21 00:04:38;;;;;;;3.28;1.42;;;;;;;14.83;100.00;97851.47;5010796;28;20113;-74
2023/09/21 00:07:04;;;;;;;5.38;1.35;;;;;;;14.88;100.00;97870.56;5003948;28;20026;-74
2023/09/21 00:09:29;;;;;;;7.13;1.48;;;;;;;14.81;100.00;97859.88;5008302;28;20026;-75
2023/09/21 00:11:55;;;;;;;3.17;1.60;;;;;;;14.74;100.00;97861.97;5011688;28;20117;-74
2023/09/21 00:14:20;;;;;;;6.20;1.63;;;;;;;14.74;100.00;97858.44;5007992;28;20037;-74
2023/09/21 00:16:45;;;;;;;2.85;1.20;;;;;;;14.59;100.00;97849.00;5012116;28;20046;-74
2023/09/21 00:19:10;;;;;;;4.18;1.40;;;;;;;14.60;100.00;97845.19;5002458;28;20036;-74
2023/09/21 00:21:37;;;;;;;3.47;1.40;;;;;;;14.44;100.00;97835.97;5011509;28;20508;-74
2023/09/21 00:24:03;;;;;;;2.53;1.40;;;;;;;14.50;100.00;97849.66;5010972;28;20080;-74
2023/09/21 00:26:28;;;;;;;3.05;1.60;;;;;;;14.48;100.00;97845.28;5011804;28;20030;-74
2023/09/21 00:28:53;;;;;;;2.28;1.45;;;;;;;14.50;100.00;97852.38;5008473;28;20075;-74
2023/09/21 00:31:19;;;;;;;3.85;2.08;;;;;;;14.50;100.00;97839.59;5005555;28;20032;-74
2023/09/21 00:33:45;;;;;;;2.35;1.33;;;;;;;14.50;100.00;97841.50;5016141;28;20028;-74
2023/09/21 00:36:13;;;;;;;3.40;1.90;;;;;;;14.47;100.00;97831.94;5012495;28;20030;-74
2023/09/21 00:38:38;;;;;;;3.92;1.83;;;;;;;14.53;100.00;97841.03;5000281;28;20068;-74
2023/09/21 00:41:04;;;;;;;5.15;1.83;;;;;;;14.44;100.00;97840.63;5008533;28;20129;-74
2023/09/21 00:43:30;;;;;;;2.25;1.52;;;;;;;14.50;100.00;97839.59;5010396;28;20026;-74
2023/09/21 00:45:57;;;;;;;4.25;2.05;;;;;;;14.35;100.00;97828.50;5010581;28;20105;-74
2023/09/21 00:48:26;;;;;;;3.50;1.50;;;;;;;14.27;100.00;97824.31;5011238;28;20026;-74
2023/09/21 00:50:54;;;;;;;2.53;1.52;;;;;;;14.18;100.00;97813.06;5009166;28;20030;-74
2023/09/21 00:53:21;;;;;;;1.90;1.25;;;;;;;14.12;100.00;97813.22;4998908;28;20042;-74
2023/09/21 00:55:53;;;;;;;2.45;1.50;;;;;;;14.09;100.00;97805.56;5009395;28;20461;-74
2023/09/21 00:58:21;;;;;;;2.35;1.30;;;;;;;13.98;100.00;97802.69;4995353;28;20038;-74
2023/09/21 01:00:49;;;;;;;2.03;1.40;;;;;;;13.99;100.00;97820.69;5006437;28;20057;-74
2023/09/21 01:03:15;;;;;;;3.90;1.38;;;;;;;13.98;100.00;97819.00;5006250;28;20030;-74
2023/09/21 01:05:42;;;;;;;2.30;1.33;;;;;;;14.20;100.00;97829.94;5010699;28;20366;-74
2023/09/21 01:08:17;;;;;;;7.20;1.80;;;;;;;14.09;100.00;97813.72;5010359;28;20778;-74
2023/09/21 01:10:48;;;;;;;2.15;1.27;;;;;;;14.09;100.00;97819.97;5012393;28;20485;-74
2023/09/21 01:13:15;;;;;;;4.65;1.63;;;;;;;13.94;100.00;97800.75;5010997;28;20038;-74
2023/09/21 01:15:47;;;;;;;1.98;1.30;;;;;;;13.91;100.00;97806.66;5013049;28;20022;-74
2023/09/21 01:18:13;;;;;;;1.90;1.27;;;;;;;13.96;100.00;97809.44;5014804;28;20484;-74
2023/09/21 01:20:42;;;;;;;3.90;1.48;;;;;;;13.89;100.00;97811.53;5011441;28;20034;-74
2023/09/21 01:23:19;;;;;;;2.95;1.60;;;;;;;13.90;100.00;97810.47;5016373;28;20038;-74
2023/09/21 01:25:52;;;;;;;2.15;1.50;;;;;;;13.92;100.00;97811.03;5016805;28;20034;-74
2023/09/21 01:28:22;;;;;;;3.47;1.40;;;;;;;14.07;100.00;97819.44;5016271;28;20013;-74
2023/09/21 01:30:49;;;;;;;4.57;1.75;;;;;;;14.06;100.00;97817.75;5012556;28;20442;-74
2023/09/21 01:33:15;;;;;;;3.53;1.50;;;;;;;14.05;100.00;97816.13;5013975;28;20030;-74
2023/09/21 01:35:47;;;;;;;2.58;1.40;;;;;;;14.02;100.00;97809.28;5013339;28;20109;-74
2023/09/21 01:38:13;;;;;;;2.67;1.20;;;;;;;14.06;100.00;97806.06;5011825;28;20030;-74
2023/09/21 01:40:40;;;;;;;2.75;1.30;;;;;;;14.07;100.00;97808.56;5000854;28;20033;-74
2023/09/21 01:43:07;;;;;;;3.47;1.88;;;;;;;14.07;100.00;97796.81;5012205;28;20386;-74
2023/09/21 01:45:34;;;;;;;2.20;1.58;;;;;;;14.10;100.00;97801.78;5016028;28;20025;-74
2023/09/21 01:48:00;;;;;;;2.88;1.85;;;;;;;14.15;100.00;97804.56;5015646;28;20079;-74
2023/09/21 01:50:28;;;;;;;3.08;1.50;;;;;;;14.12;100.00;97800.47;5005575;28;20101;-74
2023/09/21 01:52:54;;;;;;;3.92;1.35;;;;;;;14.06;100.00;97782.41;5002181;28;20073;-74
2023/09/21 01:55:20;;;;;;;2.40;1.60;;;;;;;14.11;100.00;97790.63;5010904;28;20484;-74
2023/09/21 01:57:45;;;;;;;1.80;1.13;;;;;;;14.25;100.00;97797.38;5014563;28;20045;-74
2023/09/21 02:00:27;;;;;;;2.28;1.40;;;;;;;14.22;100.00;97789.69;5011502;28;20029;-74
2023/09/21 02:02:53;;;;;;;3.83;1.27;;;;;;;14.22;100.00;97781.53;5013989;28;20043;-74
2023/09/21 02:05:19;;;;;;;2.65;1.52;;;;;;;14.22;100.00;97776.09;5012931;28;20037;-74
2023/09/21 02:07:45;;;;;;;2.85;1.70;;;;;;;14.27;100.00;97785.41;5013750;28;20444;-74
2023/09/21 02:10:11;;;;;;;5.68;1.77;;;;;;;14.29;100.00;97783.25;5005772;28;20030;-74
2023/09/21 02:12:38;;;;;;;2.28;1.45;;;;;;;14.22;100.00;97759.75;5018670;28;20029;-74
2023/09/21 02:15:12;;;;;;;2.70;1.30;;;;;;;14.38;100.00;97774.41;5016086;28;20030;-76
2023/09/21 02:17:39;;;;;;;2.80;1.58;;;;;;;14.31;100.00;97778.41;5007822;28;20057;-74
2023/09/21 02:20:13;;;;;;;2.13;1.50;;;;;;;14.21;100.00;97770.91;5011239;28;20017;-74
2023/09/21 02:22:42;;;;;;;3.92;1.58;;;;;;;14.09;100.00;97765.59;5008964;28;20650;-74
2023/09/21 02:25:10;;;;;;;2.58;1.65;;;;;;;14.01;100.00;97771.47;5012204;28;20036;-74
2023/09/21 02:27:36;;;;;;;6.07;1.40;;;;;;;14.04;100.00;97779.09;5013463;28;20029;-74
2023/09/21 02:30:01;;;;;;;2.13;1.27;;;;;;;13.85;100.00;97761.44;5008003;28;20028;-74
2023/09/21 02:32:27;;;;;;;2.03;1.30;;;;;;;13.89;100.00;97765.31;5011836;28;20032;-74
2023/09/21 02:34:52;;;;;;;3.08;1.38;;;;;;;13.82;100.00;97763.59;5013133;28;20377;-74
2023/09/21 02:37:18;;;;;;;4.35;1.60;;;;;;;13.66;100.00;97745.41;5013009;28;20033;-74
2023/09/21 02:39:43;;;;;;;2.60;1.58;;;;;;;13.70;100.00;97768.31;5016463;28;20026;-74
2023/09/21 02:42:09;;;;;;;3.83;1.70;;;;;;;13.66;100.00;97755.47;5013032;28;20022;-74
2023/09/21 02:44:34;;;;;;;3.13;1.45;;;;;;;13.78;100.00;97759.72;5011917;28;20397;-74
2023/09/21 02:47:00;;;;;;;2.08;1.30;;;;;;;13.70;100.00;97752.00;5013208;28;20017;-74
2023/09/21 02:49:25;;;;;;;2.45;1.55;;;;;;;13.59;100.00;97739.31;5009937;28;20322;-74
2023/09/21 02:51:52;;;;;;;2.55;1.55;;;;;;;13.67;100.00;97744.31;5007489;28;20022;-74
2023/09/21 02:54:18;;;;;;;5.60;1.50;;;;;;;13.75;100.00;97753.97;5004180;28;20021;-74
2023/09/21 02:56:43;;;;;;;6.20;1.77;;;;;;;13.75;100.00;97743.94;5008677;28;20026;-74
2023/09/21 02:59:13;;;;;;;3.38;1.85;;;;;;;13.76;100.00;97728.44;5010393;28;20018;-74
2023/09/21 03:01:38;;;;;;;6.35;1.90;;;;;;;13.87;100.00;97713.09;5010408;28;20030;-74
2023/09/21 03:04:04;;;;;;;3.17;2.00;;;;;;;13.86;100.00;97723.16;5011723;28;20030;-74
2023/09/21 03:06:32;;;;;;;3.03;1.80;;;;;;;13.86;100.00;97733.16;5006974;28;20028;-74
2023/09/21 03:08:57;;;;;;;3.17;1.73;;;;;;;13.75;100.00;97711.31;5018326;28;20556;-74
2023/09/21 03:11:23;;;;;;;3.72;1.90;;;;;;;13.81;100.00;97717.63;5011755;28;20122;-74
2023/09/21 03:13:48;;;;;;;4.78;2.40;;;;;;;13.80;100.00;97716.78;5011768;28;20037;-74
2023/09/21 03:16:17;;;;;;;4.95;2.58;;;;;;;13.80;100.00;97714.06;5020138;28;20021;-74
2023/09/21 03:18:42;;;;;;;3.75;2.60;;;;;;;13.93;100.00;97712.88;5008864;28;20018;-74
2023/09/21 03:21:14;;;;;;;3.42;1.70;;;;;;;14.08;100.00;97703.28;5004848;28;20028;-74
2023/09/21 03:23:40;;;;;;;4.78;1.67;;;;;;;14.27;100.00;97703.78;5010094;28;20022;-74
2023/09/21 03:26:10;;;;;;;6.25;2.08;;;;;;;14.27;100.00;97706.50;5012387;28;20037;-76
2023/09/21 03:28:37;;;;;;;7.45;2.10;;;;;;;14.33;100.00;97711.78;5010304;28;20543;-76
2023/09/21 03:31:03;;;;;;;4.47;2.00;;;;;;;14.35;100.00;97715.03;5005103;28;20117;-74
2023/09/21 03:33:28;;;;;;;5.05;1.63;;;;;;;14.23;100.00;97679.81;5010672;28;20443;-74
2023/09/21 03:35:54;;;;;;;5.10;1.80;;;;;;;14.32;100.00;97682.91;5015183;28;20509;-74
2023/09/21 03:38:19;;;;;;;4.03;1.52;;;;;;;14.37;100.00;97679.41;5012016;28;20030;-74
2023/09/21 03:40:45;;;;;;;3.55;1.50;;;;;;;14.44;100.00;97690.94;5011696;28;20508;-73
2023/09/21 03:43:14;;;;;;;5.68;2.17;;;;;;;14.41;100.00;97675.13;5011544;28;20049;-73
2023/09/21 03:45:42;;;;;;;4.10;2.00;;;;;;;14.44;100.00;97685.50;5003120;28;20076;-74
2023/09/21 03:48:12;;;;;;;3.83;1.80;;;;;;;14.37;100.00;97682.13;5011891;28;20095;-74
2023/09/21 03:50:39;;;;;;;5.07;1.88;;;;;;;14.46;100.00;97695.03;5009712;28;20056;-73
2023/09/21 03:53:05;;;;;;;2.95;1.60;;;;;;;14.51;100.00;97691.53;5008125;28;20806;-73
2023/09/21 03:55:31;;;;;;;3.40;1.58;;;;;;;14.41;100.00;97672.41;5013014;28;20032;-73
2023/09/21 03:57:57;;;;;;;3.53;1.77;;;;;;;14.47;100.00;97685.78;5016355;28;20104;-77
2023/09/21 04:03:09;;;;;;;3.37;1.80;;;;;;;14.44;100.00;97672.69;5004935;28;20478;-77
2023/09/21 04:05:35;;;;;;;3.28;1.98;;;;;;;14.45;100.00;97676.25;5002091;28;20289;-77
2023/09/21 04:08:01;;;;;;;4.45;1.63;;;;;;;14.36;100.00;97667.72;5007150;28;20141;-78
2023/09/21 04:10:26;;;;;;;4.75;2.00;;;;;;;14.29;100.00;97658.13;5011842;28;20072;-76
2023/09/21 04:12:55;;;;;;;6.90;1.92;;;;;;;14.47;100.00;97668.66;5009615;28;20140;-81
2023/09/21 04:15:22;;;;;;;2.22;1.58;;;;;;;14.50;100.00;97668.13;5013108;28;20057;-79
2023/09/21 04:17:47;;;;;;;4.15;1.80;;;;;;;14.41;100.00;97658.78;5015665;28;20037;-78
2023/09/21 04:20:14;;;;;;;4.97;1.92;;;;;;;14.49;100.00;97680.09;5030793;28;20026;-79
2023/09/21 04:22:41;;;;;;;3.65;1.80;;;;;;;14.32;100.00;97661.13;5031483;28;20089;-79
2023/09/21 04:25:10;;;;;;;3.10;1.50;;;;;;;14.49;100.00;97680.09;5015161;28;20029;-81
2023/09/21 04:27:42;;;;;;;2.03;1.48;;;;;;;14.36;100.00;97669.63;5015688;28;20045;-83
2023/09/21 04:30:09;;;;;;;6.97;1.90;;;;;;;14.32;100.00;97665.75;5015096;28;20026;-82
2023/09/21 04:32:37;;;;;;;4.68;2.15;;;;;;;14.20;100.00;97665.88;5012041;28;20033;-81
2023/09/21 04:35:04;;;;;;;3.63;2.00;;;;;;;14.29;100.00;97679.88;5014033;28;20088;-79
2023/09/21 04:37:29;;;;;;;3.22;1.80;;;;;;;14.14;100.00;97665.00;5015036;28;20022;-83
2023/09/21 04:39:54;;;;;;;4.35;2.00;;;;;;;14.05;100.00;97657.56;5007184;28;20023;-79
2023/09/21 04:42:20;;;;;;;6.00;1.75;;;;;;;14.35;100.00;97684.28;5014308;28;20438;-79
2023/09/21 04:44:45;;;;;;;2.70;1.48;;;;;;;14.31;100.00;97677.72;5017619;28;20022;-80
2023/09/21 04:47:10;;;;;;;6.35;1.55;;;;;;;14.47;100.00;97684.97;5016627;28;20076;-77
2023/09/21 04:49:39;;;;;;;3.83;1.75;;;;;;;14.45;100.00;97662.63;5015839;28;20388;-76
2023/09/21 04:52:04;;;;;;;2.50;1.67;;;;;;;14.46;100.00;97662.38;5021656;28;20033;-76
2023/09/21 04:54:30;;;;;;;8.13;2.30;;;;;;;14.63;100.00;97678.63;5015305;28;20389;-75
2023/09/21 04:56:55;;;;;;;4.05;1.88;;;;;;;14.61;100.00;97679.97;5008328;28;20022;-75
2023/09/21 04:59:21;;;;;;;4.55;1.77;;;;;;;14.60;100.00;97662.00;5012442;28;20030;-77
2023/09/21 05:01:47;;;;;;;4.07;1.80;;;;;;;14.67;100.00;97671.59;5011046;28;20033;-76
2023/09/21 05:04:13;;;;;;;4.13;1.48;;;;;;;14.69;100.00;97669.44;5014533;28;20033;-75
2023/09/21 05:06:38;;;;;;;2.47;1.73;;;;;;;14.68;100.00;97658.81;5011287;28;20022;-77
2023/09/21 05:09:04;;;;;;;5.10;1.65;;;;;;;14.87;100.00;97678.31;5011310;28;20104;-78
2023/09/21 05:11:33;;;;;;;3.33;1.85;;;;;;;14.84;100.00;97662.50;5014060;28;20473;-75
2023/09/21 05:13:58;;;;;;;;;;;;;;;15.01;100.00;97675.97;5018036;28;20088;-75
2023/09/21 05:16:24;;;;;;;4.60;1.75;;;;;;;14.85;100.00;97656.78;5020753;28;19996;-76
2023/09/21 05:18:50;;;;;;;10.00;2.40;;;;;;;14.99;100.00;97681.69;5015188;28;20105;-76
2023/09/21 05:21:15;;;;;;;3.33;1.90;;;;;;;14.94;100.00;97678.94;5015688;28;20396;-75
2023/09/21 05:23:45;;;;;;;3.85;1.95;;;;;;;14.86;100.00;97680.22;5009460;28;20041;-76
2023/09/21 05:26:10;;;;;;;3.65;2.30;;;;;;;14.73;100.00;97666.22;5008847;28;20090;-77
2023/09/21 05:28:36;;;;;;;3.42;1.75;;;;;;;14.67;100.00;97657.16;5012359;28;20041;-77
2023/09/21 05:31:01;;;;;;;5.13;1.88;;;;;;;14.74;100.00;97654.22;5015567;28;20022;-79
2023/09/21 05:33:26;;;;;;;7.43;2.20;;;;;;;14.72;100.00;97659.91;5030005;28;20022;-77
2023/09/21 05:35:53;;;;;;;6.10;1.75;;;;;;;14.89;100.00;97692.50;5010679;28;20018;-75
2023/09/21 05:38:19;;;;;;;4.40;2.20;;;;;;;14.89;100.00;97679.69;5029844;23;20053;-55
2023/09/21 05:40:45;;;;;;;3.38;2.03;;;;;;;14.99;100.00;97687.16;5026180;28;20026;-55
2023/09/21 05:43:10;;;;;;;4.30;2.25;;;;;;;14.94;100.00;97675.38;5007490;28;20200;-55
2023/09/21 05:45:35;;;;;;;3.65;2.15;;;;;;;14.93;100.00;97676.44;5009062;28;20029;-55
2023/09/21 05:48:01;;;;;;;5.35;1.90;;;;;;;15.13;100.00;97674.72;5020482;28;20109;-54
2023/09/21 05:50:26;;;;;;;6.05;2.28;;;;;;;15.60;100.00;97669.59;4990719;28;20077;-55
2023/09/21 05:52:54;;;;;;;5.47;1.85;;;;;;;15.89;100.00;97661.88;4990440;28;20659;-55
2023/09/21 05:55:19;;;;;;;6.50;2.20;;;;;;;16.41;100.00;97652.78;4988330;28;20446;-55
2023/09/21 05:57:47;;;;;;;4.15;1.95;;;;;;;17.04;100.00;97649.88;4986814;28;20030;-55
2023/09/21 06:00:14;;;;;;;6.28;2.10;;;;;;;17.91;100.00;97628.66;4985578;28;20422;-60
2023/09/21 06:02:39;;;;;;;6.32;2.30;;;;;;;17.75;100.00;97627.88;4985161;28;20029;-54
2023/09/21 06:05:05;;;;;;;4.78;2.20;;;;;;;17.45;100.00;97638.91;4985287;28;20101;-54
2023/09/21 06:07:31;;;;;;;4.88;2.00;;;;;;;16.90;100.00;97637.84;4989655;28;20480;-54
2023/09/21 06:09:57;;;;;;;3.47;1.60;;;;;;;16.74;100.00;97636.97;4985420;28;20524;-54
2023/09/21 06:12:25;;;;;;;3.50;2.10;;;;;;;16.42;100.00;97646.22;4992710;28;20125;-54
2023/09/21 06:14:52;;;;;;;4.63;1.80;;;;;;;16.14;100.00;97636.63;4991887;28;20465;-54
2023/09/21 06:17:17;;;;;;;4.97;2.00;;;;;;;15.99;100.00;97640.91;4985764;28;20041;-54
2023/09/21 06:19:44;;;;;;;6.22;2.17;;;;;;;15.97;100.00;97637.63;4991811;28;20022;-54
2023/09/21 06:22:09;;;;;;;10.35;2.50;;;;;;;15.96;100.00;97638.72;4991430;28;20030;-54
2023/09/21 06:24:35;;;;;;;8.90;2.78;;;;;;;16.00;100.00;97642.53;4988628;28;20026;-54
2023/09/21 06:27:00;;;;;;;3.22;2.08;;;;;;;16.07;100.00;97641.50;4976488;28;20038;-54
2023/09/21 06:29:25;;;;;;;4.70;2.33;;;;;;;16.19;100.00;97634.72;5003074;28;20036;-54
2023/09/21 06:31:55;;;;;;;3.85;2.17;;;;;;;16.26;100.00;97628.16;4987402;28;20026;-54
2023/09/21 06:34:24;;;;;;;6.68;2.28;;;;;;;16.24;100.00;97636.63;4990501;28;20089;-54
2023/09/21 06:36:50;;;;;;;3.47;2.28;;;;;;;16.07;100.00;97652.41;4991677;28;20027;-54
2023/09/21 06:39:16;;;;;;;25.65;4.35;;;;;;;15.99;100.00;97651.81;4986978;28;20371;-53
2023/09/21 06:41:44;;;;;;;28.77;4.32;;;;;;;15.99;100.00;97651.81;4990245;28;20022;-53
2023/09/21 06:44:09;;;;;;;11.45;3.40;;;;;;;15.95;100.00;97649.88;4989685;28;20032;-53
2023/09/21 06:46:35;;;;;;;16.40;3.60;;;;;;;15.98;100.00;97655.66;4987625;28;20019;-53
2023/09/21 06:49:02;;;;;;;6.32;2.03;;;;;;;15.89;100.00;97651.78;4981930;28;20121;-59
2023/09/21 06:51:28;;;;;;;7.03;2.72;;;;;;;16.05;100.00;97643.66;4986104;28;20026;-59
2023/09/21 06:53:55;;;;;;;5.40;2.00;;;;;;;16.18;100.00;97641.25;4984005;28;20437;-58
2023/09/21 06:56:23;;;;;;;4.90;1.98;;;;;;;16.27;100.00;97640.72;5002794;28;20058;-58
2023/09/21 06:58:49;;;;;;;4.85;1.95;;;;;;;16.44;100.00;97650.31;4985658;28;20101;-59
2023/09/21 07:01:15;;;;;;;3.40;1.77;;;;;;;16.61;100.00;97646.53;4987643;28;20026;-59
2023/09/21 07:03:40;;;;;;;3.95;2.05;;;;;;;16.70;100.00;97634.00;4989214;28;20057;-59
2023/09/21 07:06:07;;;;;;;3.20;1.92;;;;;;;16.79;100.00;97639.75;4998945;28;20113;-59
2023/09/21 07:08:33;;;;;;;2.42;1.70;;;;;;;17.01;100.00;97637.59;4990374;28;20038;-58
2023/09/21 07:10:58;;;;;;;3.00;1.70;;;;;;;17.01;100.00;97626.66;4997488;28;20398;-58
2023/09/21 07:13:24;;;;;;;2.75;1.80;;;;;;;16.94;100.00;97619.81;4975453;28;20397;-58
2023/09/21 07:15:49;;;;;;;5.25;1.80;;;;;;;17.02;100.00;97622.00;4988841;28;20072;-58
2023/09/21 07:18:15;;;;;;;7.65;1.63;;;;;;;17.07;100.00;97613.81;4991610;28;20037;-58
2023/09/21 07:20:40;;;;;;;5.88;1.90;;;;;;;17.17;100.00;97615.72;4990586;28;20037;-58
2023/09/21 07:23:05;;;;;;;2.97;1.67;;;;;;;17.30;100.00;97621.44;4989341;28;20025;-58
2023/09/21 07:25:31;;;;;;;5.25;1.80;;;;;;;17.54;100.00;97615.38;4990834;28;20038;-58
2023/09/21 07:27:57;;;;;;;4.22;2.35;;;;;;;17.71;100.00;97610.41;4990411;28;20030;-59
2023/09/21 07:30:23;;;;;;;6.97;2.20;;;;;;;18.00;100.00;97600.72;4986386;28;20034;-58
2023/09/21 07:32:49;;;;;;;4.95;2.30;;;;;;;18.06;100.00;97603.16;4988096;28;20495;-59
2023/09/21 07:35:14;;;;;;;5.32;2.03;;;;;;;18.46;100.00;97606.75;4991885;28;20030;-58
2023/09/21 07:37:46;;;;;;;6.30;2.13;;;;;;;18.47;100.00;97605.69;4987743;28;20022;-60
2023/09/21 07:40:12;;;;;;;7.68;2.10;;;;;;;18.66;100.00;97605.00;4986680;28;20437;-59
2023/09/21 07:42:42;;;;;;;5.20;2.03;;;;;;;18.95;100.00;97594.91;4986079;28;20026;-60
2023/09/21 07:45:08;;;;;;;;;;;;;;;19.28;100.00;97584.19;4983471;28;20033;-60
2023/09/21 07:47:33;;;;;;;4.20;2.10;;;;;;;19.45;100.00;97584.56;4986530;28;20004;-59
2023/09/21 07:49:58;;;;;;;3.60;1.70;;;;;;;19.84;100.00;97582.78;4985465;28;20022;-59
2023/09/21 07:52:28;;;;;;;4.65;2.00;;;;;;;20.04;100.00;97581.69;4989675;28;20030;-59
2023/09/21 07:54:54;;;;;;;6.38;1.70;;;;;;;20.05;100.00;97583.34;4985208;28;20419;-60
2023/09/21 07:57:19;;;;;;;6.10;1.73;;;;;;;20.38;100.00;97580.66;4987133;28;20035;-59
2023/09/21 07:59:44;;;;;;;4.63;1.77;;;;;;;20.19;100.00;97569.69;4988458;28;20026;-59
2023/09/21 08:02:10;;;;;;;3.05;1.60;;;;;;;20.69;100.00;97559.88;4985950;28;20125;-59
2023/09/21 08:04:36;;;;;;;2.88;1.80;;;;;;;21.10;100.00;97558.38;4980885;28;20077;-59
2023/09/21 08:07:05;;;;;;;5.80;1.70;;;;;;;21.99;100.00;97552.53;4990274;28;20030;-59
2023/09/21 08:09:33;;;;;;;4.67;2.00;;;;;;;22.89;100.00;97547.13;4985214;28;20343;-60
2023/09/21 08:11:59;;;;;;;6.73;1.97;;;;;;;23.35;100.00;97548.72;4987947;28;20076;-59
2023/09/21 08:14:25;;;;;;;7.18;1.60;;;;;;;23.70;100.00;97543.34;4989115;28;20170;-60
2023/09/21 08:16:54;;;;;;;7.13;1.70;;;;;;;24.19;100.00;97535.84;4984059;28;20037;-59
2023/09/21 08:19:20;;;;;;;9.52;2.00;;;;;;;24.81;100.00;97531.13;4985909;28;20030;-60
2023/09/21 08:21:45;;;;;;;5.35;1.65;;;;;;;27.13;100.00;97516.59;4985064;28;20076;-55
2023/09/21 08:24:12;;;;;;;2.22;1.30;;;;;;;28.77;100.00;97527.41;4999790;28;20125;-56
2023/09/21 08:26:38;;;;;;;6.18;1.60;;;;;;;29.43;99.18;97523.25;4992451;28;20080;-53
2023/09/21 08:29:04;;;;;;;2.78;1.70;;;;;;;32.01;78.07;97516.63;5006170;28;20030;-53
2023/09/21 08:31:30;;;;;;;4.57;1.45;;;;;;;35.81;64.97;97516.81;4999817;28;20041;-46
2023/09/21 08:33:57;;;;;;;8.07;1.70;;;;;;;38.69;51.98;97511.94;4993101;28;20026;-46
2023/09/21 08:36:22;;;;;;;4.63;1.48;;;;;;;37.96;49.64;97505.41;4994129;28;20026;-46
2023/09/21 08:38:47;;;;;;;5.30;1.30;;;;;;;36.74;51.61;97511.81;4991387;28;20188;-46
2023/09/21 08:41:13;;;;;;;2.33;1.30;;;;;;;36.47;52.31;97508.66;4989065;28;20026;-46
2023/09/21 08:43:40;;;;;;;2.17;1.30;;;;;;;37.12;51.45;97508.44;4990098;28;20072;-48
2023/09/21 08:46:06;;;;;;;1.63;1.08;;;;;;;39.57;43.01;97497.81;4991463;28;20488;-47
2023/09/21 08:48:33;;;;;;;1.50;1.00;;;;;;;37.39;46.36;97497.38;4991921;28;20037;-47
2023/09/21 08:51:00;;;;;;;3.65;1.17;;;;;;;35.81;48.39;97497.91;5005045;28;20026;-47
2023/09/21 08:53:27;;;;;;;3.97;1.17;;;;;;;32.96;52.89;97505.13;5006596;28;20030;-47
2023/09/21 08:55:56;;;;;;;1.92;0.93;;;;;;;30.22;60.84;97505.63;4991243;28;20024;-47
2023/09/21 08:58:33;;;;;;;2.15;1.00;;;;;;;29.82;63.73;97497.56;4989460;28;20129;-47
2023/09/21 09:00:58;;;;;;;5.07;1.20;;;;;;;30.02;67.85;97506.75;4986060;28;20025;-47
2023/09/21 09:03:25;;;;;;;5.60;1.40;;;;;;;29.08;71.26;97503.59;4990983;28;20498;-46
2023/09/21 09:05:55;;;;;;;3.47;0.82;;;;;;;28.29;74.09;97511.66;4987976;28;20026;-46
2023/09/21 09:08:21;;;;;;;2.75;1.15;;;;;;;27.07;85.92;97513.25;4989807;28;20026;-46
2023/09/21 09:10:47;;;;;;;1.77;1.05;;;;;;;27.33;87.49;97518.53;4991437;28;20030;-46
2023/09/21 09:13:13;;;;;;;6.15;1.00;;;;;;;27.38;89.80;97520.25;4986266;28;20933;-46
2023/09/21 09:15:41;;;;;;;4.05;1.25;;;;;;;27.57;90.38;97526.06;4986848;28;20022;-47
2023/09/21 09:18:08;;;;;;;4.70;1.10;;;;;;;26.86;87.84;97522.41;4989143;28;20026;-47
2023/09/21 09:20:36;;;;;;;2.47;1.10;;;;;;;26.69;88.49;97508.69;4993006;28;20468;-46
2023/09/21 09:23:02;;;;;;;7.97;1.20;;;;;;;26.54;89.23;97506.56;4989261;28;20066;-46
2023/09/21 09:25:28;;;;;;;5.22;1.38;;;;;;;29.08;82.96;97498.03;4992856;28;20034;-46
2023/09/21 09:27:54;;;;;;;7.45;1.23;;;;;;;33.63;64.21;97483.78;4990547;28;20033;-46
2023/09/21 09:30:24;;;;;;;3.28;1.30;;;;;;;35.01;57.06;97481.34;4989013;28;20033;-46
2023/09/21 09:32:52;;;;;;;4.03;1.40;;;;;;;36.10;52.12;97472.56;4987215;28;20032;-47
2023/09/21 09:35:19;;;;;;;10.93;1.63;;;;;;;36.76;49.86;97467.13;4991537;28;20371;-47
2023/09/21 09:37:48;;;;;;;2.40;1.17;;;;;;;36.76;46.41;97455.88;4993256;28;20351;-47
2023/09/21 09:40:24;;;;;;;3.53;1.20;;;;;;;33.52;49.71;97446.41;4988720;28;20026;-47
2023/09/21 09:42:54;;;;;;;4.95;1.15;;;;;;;30.74;54.28;97454.09;4989678;28;20033;-47
2023/09/21 09:45:27;;;;;;;4.50;1.20;;;;;;;29.87;56.88;97450.66;5005832;28;20118;-47
2023/09/21 09:47:56;;;;;;;2.13;1.15;;;;;;;29.26;60.36;97446.38;4991390;28;20030;-47
2023/09/21 09:50:24;;;;;;;2.05;1.20;;;;;;;29.45;60.47;97445.69;4990183;28;20038;-47
2023/09/21 09:53:17;;;;;;;3.90;1.13;;;;;;;28.96;63.81;97446.00;4983954;28;20045;-47
2023/09/21 09:55:45;;;;;;;7.00;1.25;;;;;;;28.69;66.24;97446.84;4992642;28;20560;-47
2023/09/21 09:58:11;;;;;;;2.53;1.03;;;;;;;28.84;65.29;97443.28;4992534;28;20069;-47
2023/09/21 10:00:39;;;;;;;4.90;1.00;;;;;;;28.81;64.14;97442.03;4992369;28;20510;-46
2023/09/21 10:03:09;;;;;;;1.77;0.93;;;;;;;28.69;66.33;97441.28;4985140;28;20490;-46
2023/09/21 10:05:36;;;;;;;2.67;1.17;;;;;;;29.10;64.65;97444.78;4991072;28;20158;-46
2023/09/21 10:08:03;;;;;;;4.55;1.13;;;;;;;29.43;63.59;97436.88;5001788;28;20034;-46
2023/09/21 10:10:32;;;;;;;3.63;1.23;;;;;;;30.23;62.72;97431.09;4993682;28;20541;-46
2023/09/21 10:12:59;;;;;;;2.28;1.13;;;;;;;30.54;59.57;97421.81;4990854;28;20022;-46
2023/09/21 10:15:24;;;;;;;4.15;1.80;;;;;;;30.72;59.27;97417.38;5004453;28;20383;-47
2023/09/21 10:17:54;;;;;;;5.35;1.33;;;;;;;32.80;56.40;97412.06;4993883;28;20027;-47
2023/09/21 10:20:27;;;;;;;4.28;1.42;;;;;;;35.12;50.99;97404.25;4991696;28;20032;-47
2023/09/21 10:22:59;;;;;;;1.92;1.10;;;;;;;34.95;49.96;97407.03;4982744;28;20080;-47
2023/09/21 10:25:42;;;;;;;1.20;0.90;;;;;;;37.36;45.98;97402.28;4986712;28;20032;-47
2023/09/21 10:28:27;;;;;;;3.40;1.27;;;;;;;38.14;43.74;97393.06;4990094;28;20026;-47
2023/09/21 10:31:18;;;;;;;2.40;1.20;;;;;;;36.93;44.05;97392.13;4989626;28;20033;-47
2023/09/21 10:33:51;;;;;;;3.17;1.00;;;;;;;35.95;45.12;97396.56;4986648;28;20022;-47
2023/09/21 10:36:23;;;;;;;1.70;1.05;;;;;;;35.22;46.21;97385.81;4992017;28;20033;-47
2023/09/21 10:39:10;;;;;;;3.13;1.00;;;;;;;34.68;47.36;97382.09;4990462;28;20069;-47
2023/09/21 10:41:39;;;;;;;2.28;1.25;;;;;;;34.11;48.01;97384.69;4991354;28;20478;-47
2023/09/21 10:44:06;;;;;;;1.80;1.00;;;;;;;32.42;50.21;97388.06;5002590;28;20026;-47
2023/09/21 10:46:34;;;;;;;3.28;1.10;;;;;;;32.18;50.97;97378.97;4992524;28;20034;-47
2023/09/21 10:49:06;;;;;;;3.25;1.10;;;;;;;31.47;52.30;97380.75;4987744;28;20129;-47
2023/09/21 10:51:39;;;;;;;2.53;1.30;;;;;;;31.30;52.90;97373.69;4988018;28;20042;-46
2023/09/21 10:54:10;;;;;;;1.35;0.95;;;;;;;31.89;53.83;97363.78;4986902;28;20088;-47
2023/09/21 10:56:36;;;;;;;2.28;1.05;;;;;;;32.49;50.88;97368.56;4988902;28;20031;-47
2023/09/21 10:59:02;;;;;;;4.43;1.08;;;;;;;32.11;50.98;97366.88;4991879;28;20049;-54
2023/09/21 11:01:28;;;;;;;2.88;1.30;;;;;;;31.38;51.91;97369.84;4980611;28;20034;-53
2023/09/21 11:03:54;;;;;;;3.40;1.27;;;;;;;31.17;53.53;97356.31;5003838;28;20034;-46
2023/09/21 11:06:20;;;;;;;2.67;1.00;;;;;;;31.27;52.27;97357.69;4991116;28;20039;-46
2023/09/21 11:08:49;;;;;;;2.63;1.30;;;;;;;32.21;50.54;97343.81;4991013;28;20088;-54
2023/09/21 11:11:16;;;;;;;2.90;1.00;;;;;;;33.45;48.63;97349.00;4992863;28;20029;-54
2023/09/21 11:13:42;;;;;;;3.22;1.13;;;;;;;33.48;48.88;97347.41;4990054;28;20070;-54
2023/09/21 11:16:09;;;;;;;4.60;0.82;;;;;;;33.81;46.93;97338.03;4989924;28;20046;-47
2023/09/21 11:18:38;;;;;;;4.03;0.90;;;;;;;34.29;46.44;97348.25;4986325;28;20030;-54
2023/09/21 11:21:03;;;;;;;;;;;;;;;33.98;46.96;97337.31;4989276;28;20089;-54
2023/09/21 11:23:31;;;;;;;3.47;1.00;;;;;;;32.92;46.98;97341.75;4989436;28;19913;-47
2023/09/21 11:26:00;;;;;;;1.65;0.90;;;;;;;33.34;47.68;97348.13;4989795;28;20027;-47
2023/09/21 11:28:27;;;;;;;2.13;1.30;;;;;;;33.81;47.93;97333.22;4990928;28;20033;-54
2023/09/21 11:30:54;;;;;;;2.60;1.20;;;;;;;33.95;47.16;97328.84;4980333;28;20022;-46